Terminal Aerodrome Forecast
Issued by NWS Boston, MA

Home | Current Version | Previous Version | Text Only | Print | Product List | Glossary On
Versions: 1 2 3 4 5 6 7 8 9 10 11 12 13 14 15 16 17 18 19 20 21 22 23 24 25 26 27 28 29 30 31 32 33 34 35 36 37 38 39 40 41 42
068
FTUS41 KBOX 292048 AAA
TAFBDL
TAF AMD
KBDL 292048Z 2921/3024 22010KT P6SM SCT045 BKN120 BKN200
     FM300000 18009KT P6SM VCSH BKN080
     FM300600 20006KT P6SM BKN090
     FM300900 36004KT P6SM SCT150
     FM301800 VRB04KT P6SM SCT050=

USA.gov is the U.S. government's official web portal to all federal, state and local government web resources and services.